createdAt,value
2022-12-03T00:00:12.903Z,31.63
2022-12-03T00:02:42.076Z,33.28
2022-12-03T00:05:10.422Z,29.80
2022-12-03T00:07:37.911Z,34.47
2022-12-03T00:10:06.608Z,30.17
2022-12-03T00:12:33.652Z,30.38
2022-12-03T00:15:00.954Z,29.50
2022-12-03T00:17:28.259Z,33.90
2022-12-03T00:19:55.676Z,32.10
2022-12-03T00:22:23.213Z,31.45
2022-12-03T00:24:50.578Z,31.52
2022-12-03T00:27:17.930Z,32.90
2022-12-03T00:29:45.701Z,32.08
2022-12-03T00:32:14.223Z,31.83
2022-12-03T00:34:41.319Z,31.10
2022-12-03T00:37:08.421Z,30.48
2022-12-03T00:39:35.470Z,32.85
2022-12-03T00:42:03.012Z,31.83
2022-12-03T00:44:30.485Z,29.55
2022-12-03T00:46:57.560Z,32.38
2022-12-03T00:49:24.615Z,33.28
2022-12-03T00:51:52.559Z,31.80
2022-12-03T00:54:19.746Z,30.40
2022-12-03T00:56:46.853Z,33.60
2022-12-03T00:59:15.620Z,32.35
2022-12-03T01:01:42.821Z,30.23
2022-12-03T01:04:09.980Z,31.27
2022-12-03T01:06:37.083Z,31.40
2022-12-03T01:09:04.560Z,33.88
2022-12-03T01:11:38.377Z,28.63
2022-12-03T01:14:08.180Z,31.17
2022-12-03T01:16:36.301Z,29.83
2022-12-03T01:19:04.601Z,32.58
2022-12-03T01:21:31.925Z,29.25
2022-12-03T01:24:01.621Z,28.05
2022-12-03T01:26:28.659Z,28.00
2022-12-03T01:28:55.775Z,34.47
2022-12-03T01:31:41.585Z,33.28
2022-12-03T01:34:08.884Z,30.20
2022-12-03T01:36:35.803Z,28.48
2022-12-03T01:39:04.303Z,29.45
2022-12-03T01:41:32.314Z,32.00
2022-12-03T01:44:00.104Z,28.52
2022-12-03T01:46:46.027Z,32.40
2022-12-03T01:49:22.669Z,29.13
2022-12-03T01:51:52.923Z,31.00
2022-12-03T01:54:25.589Z,26.90
2022-12-03T01:56:54.574Z,26.63
2022-12-03T01:59:30.079Z,29.80
2022-12-03T02:01:57.884Z,27.15
2022-12-03T02:04:27.905Z,33.80
2022-12-03T02:06:55.655Z,29.63
2022-12-03T02:09:26.518Z,32.35
2022-12-03T02:11:55.949Z,30.85
2022-12-03T02:14:23.392Z,26.35
2022-12-03T02:16:50.626Z,28.73
2022-12-03T02:19:27.756Z,32.28
2022-12-03T02:22:08.007Z,28.25
2022-12-03T02:24:59.705Z,33.65
2022-12-03T02:27:29.126Z,28.43
2022-12-03T02:29:57.554Z,29.38
2022-12-03T02:32:24.867Z,30.60
2022-12-03T02:34:56.184Z,30.85
2022-12-03T02:37:27.471Z,29.02
2022-12-03T02:40:00.514Z,30.20
2022-12-03T02:42:37.486Z,31.10
2022-12-03T02:45:29.235Z,32.55
2022-12-03T02:48:02.804Z,29.85
2022-12-03T02:50:33.938Z,32.53
2022-12-03T02:53:05.551Z,31.35
2022-12-03T02:55:49.245Z,31.00
2022-12-03T02:58:16.612Z,32.65
2022-12-03T03:00:45.150Z,29.92
2022-12-03T03:03:12.846Z,31.17
2022-12-03T03:05:42.148Z,33.50
2022-12-03T03:08:10.377Z,31.13
2022-12-03T03:10:40.695Z,34.08
2022-12-03T03:13:12.461Z,29.50
2022-12-03T03:15:41.665Z,33.38
2022-12-03T03:18:11.550Z,33.05
2022-12-03T03:20:39.195Z,35.25
2022-12-03T03:23:18.512Z,33.30
2022-12-03T03:25:50.048Z,31.67
2022-12-03T03:28:19.992Z,34.10
2022-12-03T03:30:47.368Z,29.15
2022-12-03T03:33:16.349Z,31.77
2022-12-03T03:35:44.905Z,34.58
2022-12-03T03:38:12.805Z,30.85
2022-12-03T03:40:40.614Z,35.05
2022-12-03T03:43:07.717Z,30.67
2022-12-03T03:45:37.985Z,32.25
2022-12-03T03:50:34.813Z,29.58
2022-12-03T03:53:03.439Z,30.90
2022-12-03T03:55:31.350Z,31.10
2022-12-03T03:58:04.392Z,33.35
2022-12-03T04:00:32.669Z,32.88
2022-12-03T04:02:59.768Z,30.02
2022-12-03T04:05:27.885Z,29.88
2022-12-03T04:07:54.980Z,30.40
2022-12-03T04:10:40.520Z,29.65
2022-12-03T04:13:07.441Z,31.90
2022-12-03T04:15:34.486Z,32.00
2022-12-03T04:18:20.128Z,30.92
2022-12-03T04:20:48.048Z,27.50
2022-12-03T04:23:15.084Z,29.77
2022-12-03T04:26:00.400Z,33.90
2022-12-03T04:28:46.052Z,29.73
2022-12-03T04:31:31.642Z,29.52
2022-12-03T04:34:17.718Z,30.77
2022-12-03T04:36:44.758Z,28.83
2022-12-03T04:39:12.007Z,32.65
2022-12-03T04:41:39.142Z,28.17
2022-12-03T04:44:25.052Z,29.13
2022-12-03T04:46:52.032Z,31.92
2022-12-03T04:49:19.200Z,32.08
2022-12-03T04:51:46.357Z,30.70
2022-12-03T04:54:14.810Z,30.55
2022-12-03T04:56:41.985Z,28.30
2022-12-03T04:59:15.756Z,30.33
2022-12-03T05:01:44.066Z,27.63
2022-12-03T05:04:15.080Z,27.08
2022-12-03T05:06:46.192Z,28.38
2022-12-03T05:09:13.650Z,28.90
2022-12-03T05:11:41.816Z,30.02
2022-12-03T05:14:09.329Z,28.60
2022-12-03T05:16:37.650Z,30.00
2022-12-03T05:19:06.859Z,28.13
2022-12-03T05:21:34.231Z,29.15
2022-12-03T05:24:08.633Z,32.22
2022-12-03T05:26:35.629Z,30.05
2022-12-03T05:29:02.896Z,28.20
2022-12-03T05:31:30.197Z,29.00
2022-12-03T05:33:57.160Z,28.67
2022-12-03T05:36:25.463Z,29.75
2022-12-03T05:38:52.652Z,29.13
2022-12-03T05:41:38.360Z,26.10
2022-12-03T05:44:05.533Z,28.65
2022-12-03T05:46:33.048Z,32.00
2022-12-03T05:49:00.201Z,29.98
2022-12-03T05:51:27.694Z,27.77
2022-12-03T05:53:57.340Z,29.00
2022-12-03T05:56:25.938Z,30.83
2022-12-03T05:58:53.018Z,28.92
2022-12-03T06:01:21.413Z,28.05
2022-12-03T06:03:48.639Z,27.90
2022-12-03T06:06:16.394Z,25.67
2022-12-03T06:08:43.505Z,26.80
2022-12-03T06:11:10.579Z,27.98
2022-12-03T06:13:37.815Z,31.63
2022-12-03T06:16:05.328Z,32.53
2022-12-03T06:18:32.264Z,29.13
2022-12-03T06:20:59.139Z,30.00
2022-12-03T06:23:26.054Z,29.67
2022-12-03T06:25:53.133Z,30.20
2022-12-03T06:28:20.114Z,28.98
2022-12-03T06:30:47.134Z,27.00
2022-12-03T06:33:14.081Z,30.77
2022-12-03T06:35:41.122Z,28.95
2022-12-03T06:38:08.155Z,28.42
2022-12-03T06:40:35.458Z,30.15
2022-12-03T06:43:02.624Z,27.90
2022-12-03T06:45:30.370Z,29.25
2022-12-03T06:47:57.449Z,29.65
2022-12-03T06:50:24.423Z,26.60
2022-12-03T06:52:51.282Z,28.42
2022-12-03T06:55:18.187Z,33.22
2022-12-03T06:57:45.431Z,35.38
2022-12-03T07:00:13.009Z,30.45
2022-12-03T07:02:40.131Z,31.83
2022-12-03T07:05:07.977Z,34.15
2022-12-03T07:07:35.166Z,29.77
2022-12-03T07:10:02.568Z,35.45
2022-12-03T07:12:29.521Z,34.70
2022-12-03T07:14:57.418Z,32.13
2022-12-03T07:17:24.501Z,31.17
2022-12-03T07:19:52.098Z,31.75
2022-12-03T07:22:19.908Z,33.65
2022-12-03T07:24:47.105Z,30.90
2022-12-03T07:27:23.058Z,32.63
2022-12-03T07:29:50.270Z,31.77
2022-12-03T07:32:17.543Z,31.45
2022-12-03T07:34:44.712Z,32.30
2022-12-03T07:37:11.860Z,33.00
2022-12-03T07:39:40.844Z,36.75
2022-12-03T07:42:09.547Z,32.35
2022-12-03T07:44:36.617Z,34.67
2022-12-03T07:47:03.691Z,34.20
2022-12-03T07:49:30.933Z,35.42
2022-12-03T07:51:58.248Z,31.27
2022-12-03T07:54:26.035Z,31.15
2022-12-03T07:56:59.606Z,34.65
2022-12-03T07:59:29.214Z,32.47
2022-12-03T08:01:56.765Z,31.65
2022-12-03T08:04:23.883Z,31.08
2022-12-03T08:06:51.028Z,34.33
2022-12-03T08:09:18.423Z,33.97
2022-12-03T08:11:48.540Z,35.88
2022-12-03T08:14:19.103Z,32.70
2022-12-03T08:16:47.908Z,30.17
2022-12-03T08:19:17.978Z,34.22
2022-12-03T08:21:45.703Z,32.17
2022-12-03T08:24:17.079Z,34.95
2022-12-03T08:26:45.427Z,32.65
2022-12-03T08:29:15.303Z,31.77
2022-12-03T08:31:46.048Z,33.85
2022-12-03T08:34:22.287Z,34.55
2022-12-03T08:37:01.764Z,33.90
2022-12-03T08:39:34.454Z,31.73
2022-12-03T08:42:44.536Z,32.67
2022-12-03T08:45:40.735Z,33.22
2022-12-03T08:48:13.551Z,28.80
2022-12-03T08:50:42.609Z,34.50
2022-12-03T08:53:25.353Z,37.63
2022-12-03T08:55:54.476Z,33.60
2022-12-03T08:58:31.854Z,33.92
2022-12-03T09:01:10.832Z,34.92
2022-12-03T09:03:54.913Z,31.20
2022-12-03T09:06:23.697Z,34.15
2022-12-03T09:08:51.128Z,32.17
2022-12-03T09:11:19.360Z,34.25
2022-12-03T09:13:46.598Z,35.03
2022-12-03T09:16:13.725Z,31.77
2022-12-03T09:18:40.878Z,31.40
2022-12-03T09:21:07.836Z,29.20
2022-12-03T09:23:34.973Z,33.58
2022-12-03T09:26:01.949Z,31.00
2022-12-03T09:28:28.955Z,32.72
2022-12-03T09:30:56.085Z,30.23
2022-12-03T09:33:23.364Z,29.63
2022-12-03T09:35:50.701Z,34.83
2022-12-03T09:38:17.699Z,30.77
2022-12-03T09:40:44.714Z,35.63
2022-12-03T09:43:13.861Z,32.05
2022-12-03T09:45:41.182Z,32.08
2022-12-03T09:48:08.286Z,30.42
2022-12-03T09:50:40.374Z,30.67
2022-12-03T09:53:10.816Z,29.77
2022-12-03T09:55:38.100Z,31.63
2022-12-03T09:58:12.345Z,30.83
2022-12-03T10:00:40.148Z,32.28
2022-12-03T10:03:13.018Z,30.75
2022-12-03T10:05:43.837Z,31.35
2022-12-03T10:08:20.992Z,34.65
2022-12-03T10:10:55.167Z,31.05
2022-12-03T10:13:28.756Z,33.05
2022-12-03T10:15:57.979Z,29.60
2022-12-03T10:18:30.703Z,30.05
2022-12-03T10:20:58.522Z,31.27
2022-12-03T10:23:28.404Z,32.00
2022-12-03T10:26:03.736Z,29.35
2022-12-03T10:28:32.758Z,29.48
2022-12-03T10:31:02.182Z,31.40
2022-12-03T10:33:40.892Z,29.15
2022-12-03T10:36:27.062Z,27.05
2022-12-03T10:39:12.432Z,31.73
2022-12-03T10:41:41.278Z,35.15
2022-12-03T10:44:26.093Z,33.35
2022-12-03T10:47:10.955Z,30.55
2022-12-03T10:49:39.196Z,33.38
2022-12-03T10:52:14.250Z,33.67
2022-12-03T10:54:41.546Z,31.05
2022-12-03T10:57:10.636Z,31.90
2022-12-03T10:59:39.491Z,36.03
2022-12-03T11:02:21.185Z,31.73
2022-12-03T11:04:48.944Z,34.88
2022-12-03T11:07:19.751Z,33.25
2022-12-03T11:09:50.260Z,33.83
2022-12-03T11:12:28.397Z,31.77
2022-12-03T11:14:56.929Z,29.65
2022-12-03T11:18:02.028Z,30.98
2022-12-03T11:20:31.976Z,32.17
2022-12-03T11:22:59.953Z,31.67
2022-12-03T11:25:27.162Z,33.92
2022-12-03T11:28:15.958Z,34.78
2022-12-03T11:30:48.986Z,30.30
2022-12-03T11:33:22.570Z,30.90
2022-12-03T11:36:03.706Z,34.67
2022-12-03T11:38:53.957Z,31.52
2022-12-03T11:41:28.403Z,29.58
2022-12-03T11:43:56.472Z,33.03
2022-12-03T11:46:43.774Z,32.35
2022-12-03T11:49:28.916Z,35.20
2022-12-03T11:51:57.953Z,36.92
2022-12-03T11:54:25.604Z,28.23
2022-12-03T11:56:54.615Z,31.10
2022-12-03T11:59:21.958Z,31.48
2022-12-03T12:01:49.288Z,32.28
2022-12-03T12:04:34.663Z,30.92
2022-12-03T12:07:02.531Z,32.65
2022-12-03T12:09:53.479Z,33.33
2022-12-03T12:12:31.678Z,33.13
2022-12-03T12:15:00.049Z,39.17
2022-12-03T12:17:33.901Z,37.67
2022-12-03T12:20:27.353Z,33.65
2022-12-03T12:22:55.904Z,35.63
2022-12-03T12:25:39.332Z,30.75
2022-12-03T12:28:07.506Z,37.75
2022-12-03T12:54:33.818Z,33.65
2022-12-03T12:57:00.860Z,30.42
2022-12-03T12:59:29.502Z,30.92
2022-12-03T13:02:00.668Z,34.92
2022-12-03T13:04:30.737Z,35.30
2022-12-03T13:06:57.633Z,33.10
2022-12-03T13:09:26.234Z,34.00
2022-12-03T13:11:56.585Z,34.58
2022-12-03T13:14:26.462Z,35.50
2022-12-03T13:16:56.053Z,33.92
2022-12-03T13:19:39.573Z,32.03
2022-12-03T13:22:22.098Z,31.83
2022-12-03T13:24:51.340Z,34.00
2022-12-03T13:27:18.453Z,37.35
2022-12-03T13:29:53.261Z,31.10
2022-12-03T13:32:27.966Z,31.75
2022-12-03T13:35:05.510Z,38.17
2022-12-03T13:37:32.816Z,31.80
2022-12-03T13:40:30.659Z,35.08
2022-12-03T13:42:59.546Z,33.83
2022-12-03T13:45:37.937Z,35.67
2022-12-03T13:48:26.162Z,31.08
2022-12-03T13:50:55.138Z,34.22
2022-12-03T13:53:25.810Z,28.65
2022-12-03T13:56:15.568Z,31.95
2022-12-03T13:58:42.532Z,31.73
2022-12-03T14:01:10.145Z,34.80
2022-12-03T14:03:37.197Z,31.58
2022-12-03T14:06:04.170Z,37.38
2022-12-03T14:08:31.110Z,37.65
2022-12-03T14:11:00.526Z,36.33
2022-12-03T14:13:28.022Z,34.33
2022-12-03T14:15:55.398Z,36.00
2022-12-03T14:18:22.679Z,31.83
2022-12-03T14:20:50.277Z,31.23
2022-12-03T14:23:17.275Z,35.30
2022-12-03T14:25:45.240Z,33.38
2022-12-03T14:28:12.901Z,31.75
2022-12-03T14:30:40.001Z,33.25
2022-12-03T14:33:07.304Z,31.70
2022-12-03T14:35:35.717Z,30.35
2022-12-03T14:38:02.639Z,30.85
2022-12-03T14:40:29.603Z,31.83
2022-12-03T14:42:56.905Z,34.22
2022-12-03T14:45:25.223Z,29.77
2022-12-03T14:47:52.416Z,33.92
2022-12-03T14:50:19.682Z,30.85
2022-12-03T14:52:46.869Z,34.08
2022-12-03T14:55:13.877Z,31.40
2022-12-03T14:57:41.028Z,29.23
2022-12-03T15:00:08.628Z,38.15
2022-12-03T15:02:35.786Z,34.10
2022-12-03T15:05:02.957Z,33.67
2022-12-03T15:07:30.096Z,39.72
2022-12-03T15:09:58.683Z,36.33
2022-12-03T15:12:27.235Z,34.10
2022-12-03T15:14:54.751Z,34.65
2022-12-03T15:17:30.877Z,30.95
2022-12-03T15:19:58.916Z,34.33
2022-12-03T15:22:25.899Z,31.42
2022-12-03T15:24:54.148Z,33.65
2022-12-03T15:27:21.348Z,38.30
2022-12-03T15:29:49.304Z,30.90
2022-12-03T15:32:16.389Z,35.42
2022-12-03T15:34:43.662Z,33.50
2022-12-03T15:37:10.872Z,36.00
2022-12-03T15:39:52.700Z,39.47
2022-12-03T15:42:20.121Z,32.35
2022-12-03T15:44:49.188Z,29.67
2022-12-03T15:47:16.198Z,37.65
2022-12-03T15:49:43.162Z,35.10
2022-12-03T15:52:35.767Z,30.52
2022-12-03T15:57:30.027Z,29.52
2022-12-03T15:59:57.524Z,30.65
2022-12-03T16:02:25.215Z,33.75
2022-12-03T16:04:52.207Z,32.65
2022-12-03T16:07:19.064Z,33.95
2022-12-03T16:09:46.392Z,35.58
2022-12-03T16:12:13.357Z,34.78
2022-12-03T16:14:40.614Z,39.80
2022-12-03T16:17:07.717Z,36.55
2022-12-03T16:19:35.017Z,33.05
2022-12-03T16:22:02.477Z,35.50
2022-12-03T16:24:29.449Z,32.72
2022-12-03T16:26:56.437Z,31.27
2022-12-03T16:29:23.609Z,33.40
2022-12-03T16:31:51.141Z,35.83
2022-12-03T16:34:18.143Z,36.15
2022-12-03T16:36:45.766Z,36.72
2022-12-03T16:39:13.049Z,40.00
2022-12-03T16:41:40.099Z,33.55
2022-12-03T16:44:07.384Z,35.10
2022-12-03T16:46:34.929Z,35.25
2022-12-03T16:49:03.773Z,36.83
2022-12-03T16:51:30.869Z,32.83
2022-12-03T16:53:58.003Z,34.20
2022-12-03T16:56:25.290Z,35.67
2022-12-03T16:58:52.563Z,37.15
2022-12-03T17:01:23.540Z,28.65
2022-12-03T17:03:50.946Z,32.13
2022-12-03T17:06:18.193Z,33.25
2022-12-03T17:08:49.434Z,33.28
2022-12-03T17:11:17.980Z,32.05
2022-12-03T17:13:45.529Z,35.15
2022-12-03T17:16:12.832Z,37.15
2022-12-03T17:18:40.145Z,34.30
2022-12-03T17:21:07.351Z,31.83
2022-12-03T17:23:34.685Z,35.53
2022-12-03T17:26:02.157Z,31.77
2022-12-03T17:28:29.219Z,35.97
2022-12-03T17:30:56.644Z,35.90
2022-12-03T17:33:25.304Z,33.10
2022-12-03T17:35:52.329Z,37.92
2022-12-03T17:38:19.563Z,38.50
2022-12-03T17:40:46.771Z,38.45
2022-12-03T17:43:13.910Z,36.88
2022-12-03T17:45:41.834Z,37.08
2022-12-03T17:48:10.118Z,32.15
2022-12-03T17:50:37.985Z,35.40
2022-12-03T17:53:07.966Z,36.30
2022-12-03T17:55:41.252Z,36.13
2022-12-03T17:58:13.064Z,39.35
2022-12-03T18:00:40.525Z,35.58
2022-12-03T18:03:10.352Z,41.75
2022-12-03T18:05:39.728Z,40.60
2022-12-03T18:08:07.260Z,39.80
2022-12-03T18:10:34.556Z,38.13
2022-12-03T18:13:02.520Z,39.63
2022-12-03T18:15:34.245Z,43.10
2022-12-03T18:18:07.564Z,40.47
2022-12-03T18:20:34.654Z,38.17
2022-12-03T18:23:01.877Z,43.33
2022-12-03T18:25:29.386Z,38.33
2022-12-03T18:27:56.936Z,40.95
2022-12-03T18:30:24.069Z,38.75
2022-12-03T18:32:51.345Z,41.25
2022-12-03T18:35:18.944Z,37.58
2022-12-03T18:37:46.145Z,37.58
2022-12-03T18:40:20.388Z,38.63
2022-12-03T18:42:47.781Z,37.20
2022-12-03T18:45:15.958Z,40.10
2022-12-03T18:47:43.713Z,39.15
2022-12-03T18:50:12.336Z,37.80
2022-12-03T18:52:40.090Z,37.10
2022-12-03T18:55:08.225Z,39.28
2022-12-03T18:57:35.285Z,39.13
2022-12-03T19:00:13.189Z,38.08
2022-12-03T19:05:28.305Z,36.55
2022-12-03T19:07:56.554Z,40.05
2022-12-03T19:10:24.371Z,37.00
2022-12-03T19:12:51.688Z,39.78
2022-12-03T19:15:21.417Z,41.78
2022-12-03T19:17:52.413Z,42.00
2022-12-03T19:20:20.319Z,41.40
2022-12-03T19:22:47.521Z,37.03
2022-12-03T19:25:17.796Z,41.97
2022-12-03T19:27:45.154Z,39.92
2022-12-03T19:30:12.940Z,39.95
2022-12-03T19:32:40.113Z,43.28
2022-12-03T19:35:07.846Z,36.22
2022-12-03T19:37:35.077Z,40.78
2022-12-03T19:40:02.551Z,42.80
2022-12-03T19:42:31.267Z,43.50
2022-12-03T19:44:58.701Z,40.50
2022-12-03T19:47:25.783Z,42.88
2022-12-03T19:49:53.954Z,41.05
2022-12-03T19:52:21.355Z,43.88
2022-12-03T19:54:48.793Z,36.85
2022-12-03T19:57:22.912Z,41.63
2022-12-03T19:59:50.806Z,46.17
2022-12-03T20:02:18.014Z,39.38
2022-12-03T20:04:45.445Z,43.03
2022-12-03T20:07:12.841Z,42.42
2022-12-03T20:09:39.929Z,44.15
2022-12-03T20:12:07.303Z,44.38
2022-12-03T20:14:34.373Z,44.40
2022-12-03T20:17:01.811Z,42.35
2022-12-03T20:19:30.123Z,41.45
2022-12-03T20:22:02.325Z,40.65
2022-12-03T20:24:29.953Z,43.13
2022-12-03T20:26:57.330Z,40.15
2022-12-03T20:29:24.356Z,35.65
2022-12-03T20:31:52.086Z,43.90
2022-12-03T20:34:19.682Z,44.65
2022-12-03T20:36:46.893Z,49.38
2022-12-03T20:39:14.134Z,41.70
2022-12-03T20:41:41.335Z,42.45
2022-12-03T20:44:08.422Z,46.97
2022-12-03T20:46:36.495Z,41.58
2022-12-03T20:49:03.792Z,42.92
2022-12-03T20:51:32.138Z,43.65
2022-12-03T20:54:00.887Z,48.83
2022-12-03T20:56:32.886Z,44.15
2022-12-03T20:59:02.404Z,41.97
2022-12-03T21:01:29.726Z,39.65
2022-12-03T21:03:57.571Z,48.25
2022-12-03T21:06:31.327Z,40.72
2022-12-03T21:09:01.366Z,41.28
2022-12-03T21:11:31.276Z,43.45
2022-12-03T21:13:59.969Z,41.95
2022-12-03T21:17:05.723Z,42.03
2022-12-03T21:19:21.095Z,42.45
2022-12-03T21:21:49.961Z,49.97
2022-12-03T21:24:17.230Z,46.13
2022-12-03T21:26:44.269Z,45.60
2022-12-03T21:29:11.481Z,45.33
2022-12-03T21:31:40.053Z,42.47
2022-12-03T21:34:08.517Z,41.33
2022-12-03T21:36:35.862Z,44.72
2022-12-03T21:39:05.283Z,41.47
2022-12-03T21:41:35.522Z,45.92
2022-12-03T21:44:03.120Z,45.42
2022-12-03T21:47:09.315Z,44.38
2022-12-03T21:49:19.658Z,43.97
2022-12-03T21:51:48.567Z,49.05
2022-12-03T21:54:15.799Z,44.08
2022-12-03T21:56:43.314Z,46.53
2022-12-03T21:59:10.884Z,46.83
2022-12-03T22:01:42.779Z,41.67
2022-12-03T22:04:13.567Z,44.92
2022-12-03T22:06:40.650Z,45.75
2022-12-03T22:09:08.517Z,42.05
2022-12-03T22:11:35.760Z,47.63
2022-12-03T22:14:04.864Z,45.15
2022-12-03T22:16:31.799Z,39.55
2022-12-03T22:18:59.241Z,42.65
2022-12-03T22:21:26.518Z,45.00
2022-12-03T22:23:55.925Z,46.00
2022-12-03T22:26:23.267Z,40.63
2022-12-03T22:28:50.780Z,43.17
2022-12-03T22:31:19.437Z,36.47
2022-12-03T22:33:48.492Z,43.33
2022-12-03T22:36:21.003Z,43.47
2022-12-03T22:38:50.342Z,44.10
2022-12-03T22:41:17.753Z,41.90
2022-12-03T22:43:46.032Z,43.53
2022-12-03T22:46:13.627Z,46.72
2022-12-03T22:48:42.784Z,43.38
2022-12-03T22:51:22.102Z,46.63
2022-12-03T22:53:54.995Z,43.40
2022-12-03T22:56:23.339Z,45.78
2022-12-03T22:58:50.969Z,48.13
2022-12-03T23:01:27.514Z,47.08
2022-12-03T23:03:55.452Z,49.75
2022-12-03T23:06:24.048Z,47.13
2022-12-03T23:08:52.128Z,42.95
2022-12-03T23:11:20.290Z,43.47
2022-12-03T23:13:47.936Z,38.67
2022-12-03T23:16:18.706Z,44.60
2022-12-03T23:18:46.442Z,42.50
2022-12-03T23:21:24.021Z,44.97
2022-12-03T23:23:56.525Z,40.97
2022-12-03T23:26:24.105Z,42.65
2022-12-03T23:28:51.838Z,40.95
2022-12-03T23:31:20.706Z,44.95
2022-12-03T23:33:48.368Z,42.97
2022-12-03T23:36:16.752Z,43.38
2022-12-03T23:38:44.295Z,40.90
2022-12-03T23:41:14.045Z,39.83
2022-12-03T23:43:41.923Z,41.15
2022-12-03T23:46:12.282Z,42.63
2022-12-03T23:48:39.841Z,39.42
2022-12-03T23:51:12.101Z,41.75
2022-12-03T23:53:39.800Z,42.20
2022-12-03T23:56:13.719Z,42.75
2022-12-03T23:58:41.015Z,42.30
